createdAt,value
2023-04-11T00:01:15.078Z,49.78
2023-04-11T00:03:41.816Z,49.49
2023-04-11T00:06:08.824Z,50.17
2023-04-11T00:08:35.430Z,50.37
2023-04-11T00:11:02.055Z,50.64
2023-04-11T00:13:28.709Z,50.38
2023-04-11T00:15:55.959Z,45.58
2023-04-11T00:18:23.394Z,50.28
2023-04-11T00:20:49.980Z,51.02
2023-04-11T00:23:16.795Z,50.82
2023-04-11T00:25:43.468Z,45.96
2023-04-11T00:28:10.999Z,51.31
2023-04-11T00:30:38.684Z,51.14
2023-04-11T00:33:05.368Z,51.32
2023-04-11T00:35:34.761Z,46.16
2023-04-11T00:38:02.409Z,50.86
2023-04-11T00:40:29.201Z,51.56
2023-04-11T00:42:59.107Z,50.86
2023-04-11T00:45:26.321Z,51.37
2023-04-11T00:47:54.045Z,51.29
2023-04-11T00:50:22.463Z,51.69
2023-04-11T00:52:51.905Z,51.58
2023-04-11T00:55:18.506Z,51.91
2023-04-11T00:57:45.260Z,52.00
2023-04-11T01:00:12.224Z,47.17
2023-04-11T01:02:45.151Z,51.59
2023-04-11T01:05:15.030Z,51.67
2023-04-11T01:07:45.853Z,51.91
2023-04-11T01:10:14.021Z,51.64
2023-04-11T01:12:41.326Z,51.60
2023-04-11T01:15:08.361Z,51.78
2023-04-11T01:17:35.369Z,51.64
2023-04-11T01:20:02.074Z,51.47
2023-04-11T01:22:29.423Z,47.33
2023-04-11T01:24:56.582Z,50.98
2023-04-11T01:27:23.492Z,51.65
2023-04-11T01:29:50.316Z,51.35
2023-04-11T01:32:17.848Z,50.92
2023-04-11T01:34:46.290Z,50.88
2023-04-11T01:37:12.947Z,50.96
2023-04-11T01:39:39.550Z,47.92
2023-04-11T01:42:06.679Z,50.90
2023-04-11T01:44:33.801Z,51.04
2023-04-11T01:47:00.754Z,51.00
2023-04-11T01:49:27.441Z,51.20
2023-04-11T01:51:53.940Z,48.35
2023-04-11T01:54:20.629Z,51.24
2023-04-11T01:56:47.259Z,49.22
2023-04-11T01:59:14.206Z,50.78
2023-04-11T02:01:44.498Z,50.72
2023-04-11T02:04:11.470Z,50.94
2023-04-11T02:06:38.803Z,51.32
2023-04-11T02:09:05.638Z,51.02
2023-04-11T02:11:32.246Z,50.67
2023-04-11T02:13:59.879Z,50.77
2023-04-11T02:16:30.172Z,50.91
2023-04-11T02:18:57.594Z,50.62
2023-04-11T02:21:24.392Z,50.53
2023-04-11T02:23:51.126Z,50.48
2023-04-11T02:26:17.766Z,47.87
2023-04-11T02:28:44.411Z,49.97
2023-04-11T02:31:11.241Z,47.51
2023-04-11T02:33:38.045Z,49.57
2023-04-11T02:36:04.731Z,47.16
2023-04-11T02:38:31.359Z,49.45
2023-04-11T02:40:59.627Z,49.59
2023-04-11T02:43:26.390Z,49.75
2023-04-11T02:46:02.039Z,47.64
2023-04-11T02:48:32.740Z,49.88
2023-04-11T02:50:59.376Z,49.87
2023-04-11T02:53:26.235Z,49.66
2023-04-11T02:55:52.814Z,49.58
2023-04-11T02:58:20.281Z,49.63
2023-04-11T03:00:49.761Z,49.38
2023-04-11T03:03:16.487Z,49.68
2023-04-11T03:05:43.168Z,49.88
2023-04-11T03:08:09.790Z,49.88
2023-04-11T03:10:36.459Z,49.80
2023-04-11T03:13:03.100Z,49.80
2023-04-11T03:15:32.484Z,47.39
2023-04-11T03:17:59.319Z,49.65
2023-04-11T03:20:26.004Z,47.42
2023-04-11T03:22:52.624Z,49.71
2023-04-11T03:25:19.354Z,49.47
2023-04-11T03:27:45.901Z,47.36
2023-04-11T03:30:13.879Z,49.86
2023-04-11T03:32:41.104Z,50.15
2023-04-11T03:35:09.226Z,50.14
2023-04-11T03:37:36.594Z,50.28
2023-04-11T03:40:04.429Z,50.06
2023-04-11T03:42:31.089Z,50.56
2023-04-11T03:44:57.621Z,47.47
2023-04-11T03:47:24.257Z,50.20
2023-04-11T03:49:51.301Z,50.58
2023-04-11T03:52:18.202Z,50.66
2023-04-11T03:54:47.072Z,50.83
2023-04-11T03:57:14.383Z,50.57
2023-04-11T03:59:41.086Z,50.37
2023-04-11T04:02:08.105Z,51.10
2023-04-11T04:04:35.168Z,50.53
2023-04-11T04:07:02.046Z,50.68
2023-04-11T04:09:28.758Z,50.81
2023-04-11T04:11:55.274Z,49.15
2023-04-11T04:14:21.826Z,50.76
2023-04-11T04:16:48.859Z,51.24
2023-04-11T04:19:15.593Z,51.35
2023-04-11T04:21:42.118Z,49.15
2023-04-11T04:24:08.756Z,51.18
2023-04-11T04:26:38.168Z,49.08
2023-04-11T04:29:05.763Z,51.19
2023-04-11T04:31:37.556Z,51.17
2023-04-11T04:34:08.942Z,51.02
2023-04-11T04:36:46.339Z,51.60
2023-04-11T04:39:20.234Z,51.92
2023-04-11T04:41:58.391Z,51.61
2023-04-11T04:44:25.426Z,52.02
2023-04-11T04:46:56.308Z,51.56
2023-04-11T04:49:23.343Z,52.42
2023-04-11T04:51:50.058Z,50.58
2023-04-11T04:54:19.463Z,48.79
2023-04-11T04:56:48.383Z,48.25
2023-04-11T04:59:16.482Z,48.69
2023-04-11T05:01:43.389Z,47.46
2023-04-11T05:04:10.451Z,47.48
2023-04-11T05:06:37.192Z,46.64
2023-04-11T05:09:06.324Z,46.46
2023-04-11T05:11:33.647Z,47.02
2023-04-11T05:14:00.597Z,47.68
2023-04-11T05:16:27.241Z,48.10
2023-04-11T05:18:53.924Z,47.75
2023-04-11T05:21:20.619Z,48.30
2023-04-11T05:23:47.090Z,46.94
2023-04-11T05:26:13.996Z,48.47
2023-04-11T05:28:41.689Z,48.72
2023-04-11T05:31:10.006Z,48.68
2023-04-11T05:33:38.567Z,49.22
2023-04-11T05:36:06.496Z,48.94
2023-04-11T05:38:33.591Z,49.19
2023-04-11T05:41:00.582Z,49.44
2023-04-11T05:43:27.375Z,49.61
2023-04-11T05:45:53.972Z,47.46
2023-04-11T05:48:20.716Z,50.21
2023-04-11T05:50:47.319Z,50.20
2023-04-11T05:53:14.009Z,50.65
2023-04-11T05:55:40.704Z,51.56
2023-04-11T05:58:07.250Z,49.13
2023-04-11T06:00:33.888Z,51.13
2023-04-11T06:03:02.099Z,51.40
2023-04-11T06:05:32.007Z,53.70
2023-04-11T06:08:01.980Z,52.38
2023-04-11T06:10:29.718Z,52.92
2023-04-11T06:12:57.437Z,51.22
2023-04-11T06:15:25.769Z,52.64
2023-04-11T06:17:53.013Z,51.26
2023-04-11T06:20:20.716Z,51.28
2023-04-11T06:22:51.493Z,51.66
2023-04-11T06:25:20.050Z,50.25
2023-04-11T06:27:47.519Z,50.18
2023-04-11T06:30:14.606Z,49.85
2023-04-11T06:32:41.406Z,49.48
2023-04-11T06:35:08.522Z,50.01
2023-04-11T06:37:35.248Z,50.01
2023-04-11T06:40:01.968Z,48.35
2023-04-11T06:42:28.580Z,49.54
2023-04-11T06:44:55.167Z,49.50
2023-04-11T06:47:21.896Z,48.49
2023-04-11T06:49:48.581Z,47.60
2023-04-11T06:52:15.635Z,47.70
2023-04-11T06:54:42.235Z,48.10
2023-04-11T06:57:10.721Z,47.59
2023-04-11T06:59:37.816Z,48.45
2023-04-11T07:02:04.587Z,50.08
2023-04-11T07:04:31.478Z,50.05
2023-04-11T07:06:58.170Z,49.99
2023-04-11T07:09:24.849Z,50.54
2023-04-11T07:11:51.520Z,50.53
2023-04-11T07:14:18.577Z,47.97
2023-04-11T07:16:45.458Z,49.08
2023-04-11T07:19:12.387Z,49.86
2023-04-11T07:21:38.991Z,49.99
2023-04-11T07:24:06.762Z,49.70
2023-04-11T07:26:35.494Z,50.48
2023-04-11T07:29:02.205Z,50.41
2023-04-11T07:31:28.840Z,48.15
2023-04-11T07:33:55.809Z,50.96
2023-04-11T07:36:22.822Z,51.00
2023-04-11T07:38:49.382Z,49.05
2023-04-11T07:41:16.548Z,51.60
2023-04-11T07:43:43.396Z,52.20
2023-04-11T07:46:10.115Z,49.65
2023-04-11T07:48:36.955Z,52.53
2023-04-11T07:51:03.633Z,53.48
2023-04-11T07:53:32.829Z,53.08
2023-04-11T07:55:59.610Z,53.68
2023-04-11T07:58:26.195Z,50.92
2023-04-11T08:00:53.829Z,52.40
2023-04-11T08:03:21.264Z,52.64
2023-04-11T08:05:48.064Z,51.87
2023-04-11T08:08:14.645Z,52.28
2023-04-11T08:10:41.244Z,51.90
2023-04-11T08:13:07.906Z,51.90
2023-04-11T08:15:37.067Z,51.74
2023-04-11T08:18:05.142Z,51.82
2023-04-11T08:20:31.869Z,52.22
2023-04-11T08:22:58.915Z,51.17
2023-04-11T08:25:25.599Z,51.42
2023-04-11T08:27:52.760Z,49.99
2023-04-11T08:30:20.575Z,51.06
2023-04-11T08:32:47.381Z,51.77
2023-04-11T08:35:14.236Z,50.60
2023-04-11T08:37:41.670Z,49.45
2023-04-11T08:40:09.325Z,50.36
2023-04-11T08:42:36.417Z,50.29
2023-04-11T08:45:05.441Z,50.69
2023-04-11T08:47:32.148Z,50.52
2023-04-11T08:49:58.715Z,49.11
2023-04-11T08:52:25.737Z,49.88
2023-04-11T08:54:56.269Z,49.77
2023-04-11T08:57:28.009Z,50.50
2023-04-11T08:59:56.356Z,50.92
2023-04-11T09:02:23.250Z,50.21
2023-04-11T09:04:50.040Z,50.17
2023-04-11T09:07:17.178Z,50.21
2023-04-11T09:09:44.044Z,51.07
2023-04-11T09:12:11.272Z,51.44
2023-04-11T09:14:38.188Z,51.00
2023-04-11T09:17:13.835Z,50.60
2023-04-11T09:19:47.566Z,50.38
2023-04-11T09:22:15.873Z,48.93
2023-04-11T09:24:43.149Z,49.93
2023-04-11T09:27:11.681Z,49.79
2023-04-11T09:29:45.460Z,49.56
2023-04-11T09:32:30.877Z,49.03
2023-04-11T09:35:20.969Z,48.67
2023-04-11T09:37:54.248Z,47.69
2023-04-11T09:40:26.479Z,48.61
2023-04-11T09:43:11.379Z,48.25
2023-04-11T09:45:47.682Z,48.26
2023-04-11T09:48:18.764Z,47.83
2023-04-11T09:50:45.551Z,47.38
2023-04-11T09:53:12.692Z,46.80
2023-04-11T09:55:39.900Z,45.91
2023-04-11T09:58:11.314Z,46.87
2023-04-11T10:00:40.241Z,45.97
2023-04-11T10:03:07.033Z,45.44
2023-04-11T10:05:34.380Z,45.32
2023-04-11T10:08:08.713Z,44.98
2023-04-11T10:10:36.450Z,43.37
2023-04-11T10:13:03.767Z,42.96
2023-04-11T10:15:30.871Z,43.27
2023-04-11T10:18:11.825Z,43.84
2023-04-11T10:20:45.384Z,41.42
2023-04-11T10:23:13.498Z,41.44
2023-04-11T10:25:49.711Z,42.64
2023-04-11T10:28:39.872Z,42.12
2023-04-11T10:31:13.547Z,41.44
2023-04-11T10:34:00.876Z,40.92
2023-04-11T10:36:27.606Z,41.24
2023-04-11T10:38:54.150Z,43.15
2023-04-11T10:41:25.430Z,41.37
2023-04-11T10:43:53.002Z,41.55
2023-04-11T10:46:21.831Z,40.64
2023-04-11T10:49:02.658Z,41.80
2023-04-11T10:51:31.715Z,41.48
2023-04-11T10:54:00.274Z,41.45
2023-04-11T10:56:51.594Z,40.71
2023-04-11T10:59:36.441Z,41.23
2023-04-11T11:02:03.421Z,41.06
2023-04-11T11:04:37.935Z,40.46
2023-04-11T11:07:06.529Z,40.10
2023-04-11T11:09:34.282Z,37.44
2023-04-11T11:12:14.342Z,39.15
2023-04-11T11:14:43.803Z,37.06
2023-04-11T11:17:13.189Z,37.97
2023-04-11T11:19:47.077Z,38.16
2023-04-11T11:22:17.888Z,36.72
2023-04-11T11:24:44.555Z,36.35
2023-04-11T11:27:21.371Z,37.79
2023-04-11T11:29:48.379Z,37.45
2023-04-11T11:32:28.860Z,37.69
2023-04-11T11:34:57.819Z,36.22
2023-04-11T11:37:26.292Z,36.21
2023-04-11T11:39:53.643Z,36.54
2023-04-11T11:42:20.654Z,36.09
2023-04-11T11:44:47.340Z,34.94
2023-04-11T11:47:16.884Z,35.11
2023-04-11T11:49:54.434Z,34.21
2023-04-11T11:52:41.472Z,36.79
2023-04-11T11:55:20.492Z,35.92
2023-04-11T11:57:48.137Z,33.85
2023-04-11T12:00:23.547Z,33.57
2023-04-11T12:02:53.337Z,32.81
2023-04-11T12:05:20.604Z,34.51
2023-04-11T12:07:47.246Z,33.51
2023-04-11T12:10:14.613Z,37.61
2023-04-11T12:12:43.273Z,33.36
2023-04-11T12:15:17.212Z,34.71
2023-04-11T12:17:48.760Z,34.28
2023-04-11T12:20:15.937Z,33.22
2023-04-11T12:22:42.583Z,32.97
2023-04-11T12:25:13.090Z,36.30
2023-04-11T12:27:41.740Z,34.24
2023-04-11T12:30:12.126Z,33.57
2023-04-11T12:32:38.933Z,35.88
2023-04-11T12:35:06.672Z,35.60
2023-04-11T12:37:34.504Z,35.73
2023-04-11T12:40:02.025Z,35.72
2023-04-11T12:42:28.663Z,36.26
2023-04-11T12:44:55.193Z,36.79
2023-04-11T12:47:22.041Z,36.58
2023-04-11T12:49:48.806Z,37.42
2023-04-11T12:52:15.793Z,37.60
2023-04-11T12:54:42.482Z,37.76
2023-04-11T12:57:09.116Z,38.09
2023-04-11T12:59:35.814Z,39.09
2023-04-11T13:02:02.513Z,38.78
2023-04-11T13:04:29.327Z,39.31
2023-04-11T13:07:00.960Z,39.15
2023-04-11T13:09:34.575Z,39.77
2023-04-11T13:12:04.651Z,39.23
2023-04-11T13:14:31.493Z,40.07
2023-04-11T13:16:58.122Z,39.94
2023-04-11T13:19:24.671Z,40.04
2023-04-11T13:21:51.313Z,39.37
2023-04-11T13:24:17.910Z,38.96
2023-04-11T13:26:45.267Z,37.64
2023-04-11T13:29:14.799Z,38.23
2023-04-11T13:31:41.675Z,36.76
2023-04-11T13:34:08.712Z,38.16
2023-04-11T13:36:35.849Z,37.53
2023-04-11T13:39:02.488Z,36.81
2023-04-11T13:41:29.068Z,38.08
2023-04-11T13:43:56.168Z,38.23
2023-04-11T13:46:23.396Z,37.43
2023-04-11T13:48:50.024Z,36.04
2023-04-11T13:51:16.556Z,38.01
2023-04-11T13:53:43.402Z,35.80
2023-04-11T13:56:10.818Z,35.82
2023-04-11T13:58:38.422Z,35.15
2023-04-11T14:01:05.478Z,36.06
2023-04-11T14:03:33.874Z,35.37
2023-04-11T14:06:01.221Z,35.32
2023-04-11T14:08:29.098Z,33.90
2023-04-11T14:10:55.952Z,33.54
2023-04-11T14:13:22.706Z,34.01
2023-04-11T14:15:52.191Z,34.35
2023-04-11T14:18:27.916Z,34.47
2023-04-11T14:20:56.745Z,36.55
2023-04-11T14:23:23.494Z,36.80
2023-04-11T14:25:50.908Z,36.16
2023-04-11T14:28:18.524Z,36.18
2023-04-11T14:30:45.616Z,37.28
2023-04-11T14:33:12.699Z,37.82
2023-04-11T14:35:39.451Z,37.93
2023-04-11T14:38:06.025Z,37.28
2023-04-11T14:40:32.616Z,38.02
2023-04-11T14:42:59.255Z,37.78
2023-04-11T14:45:25.971Z,38.28
2023-04-11T14:47:52.682Z,37.75
2023-04-11T14:50:19.405Z,36.66
2023-04-11T14:52:48.303Z,37.49
2023-04-11T14:55:14.977Z,36.80
2023-04-11T14:57:45.421Z,37.63
2023-04-11T15:00:18.404Z,38.72
2023-04-11T15:02:46.785Z,40.99
2023-04-11T15:05:18.182Z,41.30
2023-04-11T15:07:46.768Z,41.03
2023-04-11T15:10:14.839Z,42.55
2023-04-11T15:12:41.737Z,41.91
2023-04-11T15:15:09.642Z,41.32
2023-04-11T15:17:46.464Z,41.50
2023-04-11T15:20:14.733Z,42.34
2023-04-11T15:22:45.731Z,42.42
2023-04-11T15:25:16.252Z,43.58
2023-04-11T15:27:43.453Z,43.92
2023-04-11T15:30:11.579Z,44.44
2023-04-11T15:32:45.107Z,43.92
2023-04-11T15:35:12.042Z,44.99
2023-04-11T15:37:38.663Z,44.29
2023-04-11T15:42:38.471Z,44.30
2023-04-11T15:45:05.717Z,43.88
2023-04-11T15:47:33.697Z,43.46
2023-04-11T15:50:04.435Z,43.29
2023-04-11T15:52:31.074Z,43.65
2023-04-11T15:54:57.646Z,44.39
2023-04-11T15:57:24.398Z,43.53
2023-04-11T15:59:50.908Z,42.04
2023-04-11T16:02:20.273Z,42.90
2023-04-11T16:04:48.165Z,43.10
2023-04-11T16:07:19.323Z,42.95
2023-04-11T16:09:46.610Z,42.32
2023-04-11T16:12:13.472Z,42.78
2023-04-11T16:14:40.193Z,43.32
2023-04-11T16:17:06.680Z,42.16
2023-04-11T16:19:33.356Z,43.21
2023-04-11T16:21:59.834Z,42.29
2023-04-11T16:24:28.840Z,43.45
2023-04-11T16:26:57.019Z,43.48
2023-04-11T16:29:23.604Z,43.34
2023-04-11T16:31:50.222Z,42.97
2023-04-11T16:34:17.180Z,43.42
2023-04-11T16:36:44.009Z,42.53
2023-04-11T16:39:10.573Z,42.70
2023-04-11T16:41:37.125Z,42.50
2023-04-11T16:44:06.082Z,42.54
2023-04-11T16:46:35.690Z,42.01
2023-04-11T16:49:02.249Z,41.85
2023-04-11T16:51:28.805Z,42.04
2023-04-11T16:53:56.292Z,42.49
2023-04-11T16:56:26.688Z,42.08
2023-04-11T16:58:54.025Z,42.48
2023-04-11T17:01:20.854Z,42.50
2023-04-11T17:03:47.705Z,42.71
2023-04-11T17:06:16.384Z,42.38
2023-04-11T17:08:44.491Z,42.69
2023-04-11T17:11:11.484Z,41.96
2023-04-11T17:13:40.463Z,42.75
2023-04-11T17:16:08.194Z,42.58
2023-04-11T17:18:34.953Z,41.87
2023-04-11T17:21:01.677Z,41.95
2023-04-11T17:23:41.257Z,42.20
2023-04-11T17:26:09.512Z,42.38
2023-04-11T17:28:36.470Z,41.74
2023-04-11T17:35:31.178Z,42.12
2023-04-11T17:37:57.812Z,43.03
2023-04-11T17:40:24.423Z,41.69
2023-04-11T17:42:51.541Z,43.09
2023-04-11T17:45:21.968Z,43.52
2023-04-11T17:47:48.861Z,44.71
2023-04-11T17:50:16.638Z,44.52
2023-04-11T17:52:45.174Z,45.26
2023-04-11T17:55:13.439Z,44.88
2023-04-11T17:57:40.355Z,44.88
2023-04-11T18:00:22.467Z,45.08
2023-04-11T18:02:54.697Z,44.75
2023-04-11T18:05:24.891Z,44.69
2023-04-11T18:07:54.271Z,44.65
2023-04-11T18:10:22.273Z,45.33
2023-04-11T18:12:51.670Z,45.12
2023-04-11T18:15:19.056Z,45.66
2023-04-11T18:17:46.026Z,45.75
2023-04-11T18:20:16.921Z,46.23
2023-04-11T18:22:51.861Z,46.18
2023-04-11T18:25:20.526Z,46.72
2023-04-11T18:27:47.349Z,46.27
2023-04-11T18:30:15.849Z,46.46
2023-04-11T18:32:48.064Z,46.74
2023-04-11T18:35:16.411Z,46.34
2023-04-11T18:37:43.604Z,46.20
2023-04-11T18:40:12.080Z,46.76
2023-04-11T18:42:47.850Z,46.06
2023-04-11T18:45:17.990Z,46.86
2023-04-11T18:47:47.737Z,47.04
2023-04-11T18:50:15.570Z,47.22
2023-04-11T18:52:43.343Z,46.95
2023-04-11T18:55:10.865Z,46.67
2023-04-11T18:57:38.593Z,47.11
2023-04-11T19:00:18.547Z,47.39
2023-04-11T19:02:47.027Z,47.32
2023-04-11T19:05:14.493Z,47.47
2023-04-11T19:07:42.376Z,46.92
2023-04-11T19:10:10.953Z,46.95
2023-04-11T19:12:37.980Z,47.50
2023-04-11T19:15:09.343Z,47.30
2023-04-11T19:17:41.493Z,47.00
2023-04-11T19:20:13.221Z,47.07
2023-04-11T19:22:41.223Z,47.54
2023-04-11T19:25:11.964Z,47.42
2023-04-11T19:27:41.582Z,47.73
2023-04-11T19:30:10.350Z,47.96
2023-04-11T21:42:37.281Z,49.00
2023-04-11T21:45:04.319Z,49.30
2023-04-11T21:47:31.020Z,49.28
2023-04-11T21:49:57.634Z,49.60
2023-04-11T21:52:24.272Z,49.57
2023-04-11T21:54:51.004Z,49.87
2023-04-11T21:57:17.517Z,46.77
2023-04-11T21:59:44.110Z,49.83
2023-04-11T22:02:10.946Z,49.93
2023-04-11T22:04:51.346Z,50.22
2023-04-11T22:07:26.771Z,50.35
2023-04-11T22:09:59.966Z,50.26
2023-04-11T22:12:27.283Z,50.56
2023-04-11T22:14:57.382Z,51.01
2023-04-11T22:17:24.120Z,50.90
2023-04-11T22:19:50.730Z,51.00
2023-04-11T22:22:18.106Z,50.75
2023-04-11T22:24:46.568Z,51.19
2023-04-11T22:27:13.841Z,51.11
2023-04-11T22:29:41.507Z,51.36
2023-04-11T22:32:08.523Z,51.03
2023-04-11T22:34:35.166Z,51.32
2023-04-11T22:37:01.744Z,51.41
2023-04-11T22:39:28.422Z,51.41
2023-04-11T22:41:55.538Z,51.67
2023-04-11T22:44:22.191Z,51.61
2023-04-11T22:47:08.943Z,50.63
2023-04-11T22:49:42.132Z,51.58
2023-04-11T22:52:10.888Z,51.95
2023-04-11T22:54:38.706Z,52.07
2023-04-11T22:57:05.683Z,52.46
2023-04-11T22:59:32.661Z,53.03
2023-04-11T23:01:59.340Z,52.92
2023-04-11T23:04:26.400Z,53.07
2023-04-11T23:06:53.884Z,52.83
2023-04-11T23:09:20.995Z,52.83
2023-04-11T23:11:48.889Z,53.13
2023-04-11T23:14:18.196Z,53.44
2023-04-11T23:16:45.289Z,53.57
2023-04-11T23:19:12.339Z,53.32
2023-04-11T23:21:39.018Z,53.44
2023-04-11T23:24:07.086Z,53.38
2023-04-11T23:26:33.977Z,53.62
2023-04-11T23:29:01.054Z,50.01
2023-04-11T23:31:28.038Z,52.95
2023-04-11T23:33:55.778Z,52.88
2023-04-11T23:36:22.942Z,53.00
2023-04-11T23:38:49.425Z,50.17
2023-04-11T23:41:16.010Z,52.56
2023-04-11T23:43:42.728Z,52.79
2023-04-11T23:46:09.571Z,52.97
2023-04-11T23:48:36.168Z,49.93
2023-04-11T23:51:02.744Z,52.59
2023-04-11T23:53:29.444Z,52.42
2023-04-11T23:55:56.088Z,52.96
2023-04-11T23:58:22.731Z,52.93
